Time;durP1;ratioP1;P1;durP2;ratioP2;P2;SDS_P1;SDS_P2;PMS_P1;PMS_P2;Temp;Humidity;BMP_temperature;BMP_pressure;BME280_temperature;BME280_humidity;BME280_pressure;Samples;Min_cycle;Max_cycle;Signal;HPM_P1;HPM_P2
2022/10/09 00:01:13;;;;;;;131.13;100.85;;;13.30;99.90;;;;;;6340147;22;19995;-77
2022/10/09 00:03:40;;;;;;;123.07;101.05;;;13.30;99.90;;;;;;6312921;22;20097;-79
2022/10/09 00:06:11;;;;;;;126.75;97.60;;;13.30;99.90;;;;;;6340522;22;19995;-80
2022/10/09 00:08:38;;;;;;;127.40;99.63;;;13.40;99.90;;;;;;6340380;22;19995;-78
2022/10/09 00:11:25;;;;;;;125.10;96.78;;;13.30;99.90;;;;;;6339730;22;20396;-80
2022/10/09 00:13:52;;;;;;;124.25;95.18;;;13.20;99.90;;;;;;6310919;22;20022;-80
2022/10/09 00:16:19;;;;;;;122.22;98.53;;;13.30;99.90;;;;;;6339952;22;20024;-80
2022/10/09 00:18:46;;;;;;;118.72;95.45;;;13.30;99.90;;;;;;6339221;22;20372;-80
2022/10/09 00:21:27;;;;;;;130.68;99.03;;;13.30;99.90;;;;;;6312385;22;20018;-81
2022/10/09 00:23:55;;;;;;;135.20;100.38;;;13.30;99.90;;;;;;6340115;22;19995;-80
2022/10/09 00:26:21;;;;;;;131.40;103.07;;;13.30;99.90;;;;;;6338659;22;19994;-78
2022/10/09 00:28:47;;;;;;;131.57;100.22;;;13.30;99.90;;;;;;6339500;22;20006;-79
2022/10/09 00:31:14;;;;;;;132.82;102.43;;;13.20;99.90;;;;;;6339449;22;19994;-80
2022/10/09 00:33:40;;;;;;;129.88;102.40;;;13.20;99.90;;;;;;6312377;22;19991;-80
2022/10/09 00:36:09;;;;;;;127.00;100.72;;;13.30;99.90;;;;;;6339870;22;20026;-80
2022/10/09 00:38:35;;;;;;;129.73;101.38;;;13.30;99.90;;;;;;6339216;22;20060;-81
2022/10/09 00:41:01;;;;;;;130.95;102.50;;;13.30;99.90;;;;;;6339785;22;20411;-78
2022/10/09 00:43:46;;;;;;;126.03;103.63;;;13.30;99.90;;;;;;6339093;22;20116;-81
2022/10/09 00:46:21;;;;;;;136.00;102.00;;;13.30;99.90;;;;;;6311932;22;20090;-80
2022/10/09 00:48:52;;;;;;;132.73;102.68;;;13.30;99.90;;;;;;6312165;22;19994;-78
2022/10/09 00:51:17;;;;;;;126.68;102.60;;;13.30;99.90;;;;;;6312182;22;19995;-78
2022/10/09 00:53:43;;;;;;;129.18;103.20;;;13.30;99.90;;;;;;6339090;22;20342;-80
2022/10/09 00:56:09;;;;;;;132.02;102.05;;;13.30;99.90;;;;;;6339720;22;20459;-78
2022/10/09 00:58:35;;;;;;;123.93;101.13;;;13.40;99.90;;;;;;6339641;22;19998;-79
2022/10/09 01:01:01;;;;;;;132.88;101.03;;;13.40;99.90;;;;;;6311839;22;20066;-79
2022/10/09 01:03:26;;;;;;;126.15;100.30;;;13.40;99.90;;;;;;6311626;22;19999;-80
2022/10/09 01:06:06;;;;;;;125.72;102.32;;;13.40;99.90;;;;;;6312067;22;19991;-79
2022/10/09 01:08:38;;;;;;;130.05;101.15;;;13.40;99.90;;;;;;6339688;22;20002;-78
2022/10/09 01:11:27;;;;;;;127.90;99.70;;;13.40;99.90;;;;;;6339693;22;20018;-80
2022/10/09 01:14:17;;;;;;;128.00;98.55;;;13.40;99.90;;;;;;6339107;22;19997;-81
2022/10/09 01:16:50;;;;;;;127.40;99.05;;;13.50;99.90;;;;;;6339685;22;20014;-79
2022/10/09 01:19:51;;;;;;;124.50;99.00;;;13.50;99.90;;;;;;6339218;22;20009;-80
2022/10/09 01:22:49;;;;;;;115.55;94.53;;;13.50;99.90;;;;;;6158055;23;19997;-81
2022/10/09 01:25:25;;;;;;;118.63;95.78;;;13.50;99.90;;;;;;6183227;23;20001;-79
2022/10/09 01:27:52;;;;;;;119.85;95.43;;;13.50;99.90;;;;;;6183356;23;20405;-80
2022/10/09 01:30:18;;;;;;;127.97;96.30;;;13.50;99.90;;;;;;6183444;23;19997;-80
2022/10/09 01:32:50;;;;;;;120.40;94.40;;;13.60;99.90;;;;;;6183195;23;19997;-80
2022/10/09 01:35:16;;;;;;;;;;;13.60;99.90;;;;;;6183431;23;20055;-78
2022/10/09 01:37:45;;;;;;;119.20;88.28;;;13.60;99.90;;;;;;6183244;23;19904;-81
2022/10/09 01:40:14;;;;;;;119.07;90.35;;;13.60;99.90;;;;;;6182923;23;20012;-80
2022/10/09 01:42:40;;;;;;;112.10;89.15;;;13.60;99.90;;;;;;6158020;23;20075;-79
2022/10/09 01:45:06;;;;;;;118.35;90.35;;;13.60;99.90;;;;;;6183086;23;20047;-80
2022/10/09 01:47:32;;;;;;;116.22;89.97;;;13.50;99.90;;;;;;6158135;23;20083;-80
2022/10/09 01:50:27;;;;;;;110.57;90.97;;;13.50;99.90;;;;;;6182908;23;20035;-80
2022/10/09 01:52:57;;;;;;;120.35;92.38;;;13.50;99.90;;;;;;6182921;23;20001;-79
2022/10/09 01:56:07;;;;;;;112.80;89.45;;;13.50;99.90;;;;;;6200454;22;20003;-79
2022/10/09 01:58:35;;;;;;;118.88;90.82;;;13.50;99.90;;;;;;6243290;23;20083;-80
2022/10/09 02:01:04;;;;;;;109.40;87.47;;;13.60;99.90;;;;;;6243346;23;20333;-82
2022/10/09 02:03:32;;;;;;;117.57;91.53;;;13.50;99.90;;;;;;6217527;23;20046;-79
2022/10/09 02:06:00;;;;;;;118.03;92.97;;;13.50;99.90;;;;;;6243485;23;20004;-79
2022/10/09 02:08:29;;;;;;;110.82;89.90;;;13.60;99.90;;;;;;6243324;23;20007;-79
2022/10/09 02:10:57;;;;;;;112.90;90.82;;;13.60;99.90;;;;;;6243128;23;20457;-80
2022/10/09 02:13:23;;;;;;;113.47;88.47;;;13.60;99.90;;;;;;6217708;23;20355;-81
2022/10/09 02:16:01;;;;;;;115.68;90.28;;;13.60;99.90;;;;;;6243435;23;20024;-79
2022/10/09 02:19:03;;;;;;;114.22;89.35;;;13.60;99.90;;;;;;6242812;23;20012;-79
2022/10/09 02:21:40;;;;;;;110.70;85.80;;;13.60;99.90;;;;;;6213496;23;19997;-80
2022/10/09 02:24:09;;;;;;;107.53;86.05;;;13.70;99.90;;;;;;6218124;23;19996;-81
2022/10/09 02:26:36;;;;;;;112.75;88.90;;;13.70;99.90;;;;;;6243759;23;20425;-81
2022/10/09 02:29:02;;;;;;;108.65;87.78;;;13.70;99.90;;;;;;6243604;23;20079;-79
2022/10/09 02:31:30;;;;;;;115.13;87.30;;;13.70;99.90;;;;;;6243643;23;19996;-80
2022/10/09 02:34:03;;;;;;;109.55;86.65;;;13.80;99.90;;;;;;6224524;22;20024;-80
2022/10/09 02:36:30;;;;;;;106.28;83.75;;;13.70;99.90;;;;;;6307567;22;19991;-79
2022/10/09 02:38:56;;;;;;;104.70;84.85;;;13.70;99.90;;;;;;6307827;22;20030;-80
2022/10/09 02:41:23;;;;;;;107.38;82.32;;;13.70;99.90;;;;;;6327191;22;20010;-79
2022/10/09 02:43:49;;;;;;;103.28;83.15;;;13.80;99.90;;;;;;6339534;22;19991;-80
2022/10/09 02:46:15;;;;;;;102.68;83.40;;;13.80;99.90;;;;;;6339230;22;19994;-79
2022/10/09 02:48:41;;;;;;;107.32;81.97;;;13.80;99.90;;;;;;6311191;22;20026;-79
2022/10/09 02:51:07;;;;;;;103.47;83.22;;;13.80;99.90;;;;;;6338937;22;19987;-79
2022/10/09 02:53:33;;;;;;;108.95;83.03;;;13.80;99.90;;;;;;6311013;22;20002;-80
2022/10/09 02:55:59;;;;;;;105.07;81.90;;;13.80;99.90;;;;;;6338398;22;20065;-81
2022/10/09 02:58:25;;;;;;;104.63;80.95;;;13.80;99.90;;;;;;6338137;22;20033;-81
2022/10/09 03:00:52;;;;;;;103.40;82.65;;;13.80;99.90;;;;;;6338796;22;20003;-81
2022/10/09 03:03:19;;;;;;;101.32;80.40;;;13.80;99.90;;;;;;6338615;22;20002;-79
2022/10/09 03:05:45;;;;;;;111.45;84.18;;;13.80;99.90;;;;;;6338709;22;20392;-81
2022/10/09 03:08:11;;;;;;;115.85;84.30;;;13.80;99.90;;;;;;6338836;22;20003;-81
2022/10/09 03:10:38;;;;;;;106.10;83.90;;;13.80;99.90;;;;;;6338733;22;20074;-79
2022/10/09 03:13:04;;;;;;;112.57;85.13;;;13.90;99.90;;;;;;6338533;22;19998;-80
2022/10/09 03:15:35;;;;;;;102.38;82.55;;;13.90;99.90;;;;;;6339173;22;20006;-80
2022/10/09 03:18:00;;;;;;;108.03;83.82;;;13.90;99.90;;;;;;6312743;22;20113;-80
2022/10/09 03:20:28;;;;;;;110.47;83.70;;;13.90;99.90;;;;;;6312647;22;20403;-81
2022/10/09 03:22:55;;;;;;;107.30;83.43;;;13.90;99.90;;;;;;6312963;22;20016;-78
2022/10/09 03:25:21;;;;;;;107.05;84.63;;;13.90;99.90;;;;;;6312877;22;20003;-79
2022/10/09 03:27:46;;;;;;;112.57;84.43;;;13.90;99.90;;;;;;6340224;22;19990;-81
2022/10/09 03:30:13;;;;;;;115.18;86.90;;;13.80;99.90;;;;;;6312837;22;19995;-79
2022/10/09 03:32:39;;;;;;;111.35;87.47;;;13.80;99.90;;;;;;6340508;22;19995;-79
2022/10/09 03:35:05;;;;;;;103.38;84.35;;;13.70;99.90;;;;;;6340234;22;20346;-79
2022/10/09 03:37:30;;;;;;;108.75;87.15;;;13.80;99.90;;;;;;6339777;22;20006;-79
2022/10/09 03:39:57;;;;;;;102.75;85.50;;;13.70;99.90;;;;;;6340135;22;19998;-79
2022/10/09 03:42:23;;;;;;;104.20;85.07;;;13.70;99.90;;;;;;6340211;22;20400;-79
2022/10/09 03:44:49;;;;;;;114.88;83.90;;;13.80;99.90;;;;;;6340313;22;19997;-79
2022/10/09 03:47:15;;;;;;;109.15;84.18;;;13.70;99.90;;;;;;6312736;22;20022;-78
2022/10/09 03:49:42;;;;;;;105.72;82.30;;;13.80;99.90;;;;;;6340317;22;20311;-81
2022/10/09 03:52:07;;;;;;;105.20;81.85;;;13.70;99.90;;;;;;6312462;22;20347;-81
2022/10/09 03:54:33;;;;;;;112.32;84.53;;;13.80;99.90;;;;;;6312639;22;19995;-80
2022/10/09 03:56:59;;;;;;;102.95;82.05;;;13.70;99.90;;;;;;6312961;22;19998;-81
2022/10/09 03:59:25;;;;;;;105.32;82.82;;;13.70;99.90;;;;;;6340512;22;19994;-82
2022/10/09 04:01:51;;;;;;;105.57;83.75;;;13.70;99.90;;;;;;6312764;22;20005;-79
2022/10/09 04:04:16;;;;;;;106.80;83.65;;;13.70;99.90;;;;;;6313103;22;19995;-80
2022/10/09 04:06:42;;;;;;;108.93;84.72;;;13.60;99.90;;;;;;6340435;22;20117;-81
2022/10/09 04:09:08;;;;;;;115.22;83.07;;;13.60;99.90;;;;;;6312686;22;20087;-80
2022/10/09 04:11:35;;;;;;;112.25;83.65;;;13.60;99.90;;;;;;6312939;22;20021;-81
2022/10/09 04:14:00;;;;;;;106.13;83.63;;;13.60;99.90;;;;;;6340460;22;19998;-79
2022/10/09 04:16:26;;;;;;;101.78;82.10;;;13.60;99.90;;;;;;6340361;22;19986;-80
2022/10/09 04:18:52;;;;;;;108.28;80.70;;;13.60;99.90;;;;;;6340178;22;20021;-82
2022/10/09 04:21:18;;;;;;;103.70;80.57;;;13.60;99.90;;;;;;6339999;22;19994;-80
2022/10/09 04:23:43;;;;;;;104.53;81.82;;;13.60;99.90;;;;;;6339780;22;19998;-79
2022/10/09 04:26:11;;;;;;;98.40;78.50;;;13.60;99.90;;;;;;6340021;22;19995;-81
2022/10/09 04:28:37;;;;;;;105.55;82.53;;;13.60;99.90;;;;;;6311759;22;20350;-80
2022/10/09 04:31:03;;;;;;;100.38;79.57;;;13.60;99.90;;;;;;6339329;22;20001;-80
2022/10/09 04:33:30;;;;;;;104.00;78.07;;;13.60;99.90;;;;;;6339471;22;20300;-81
2022/10/09 04:35:56;;;;;;;108.53;81.60;;;13.70;99.90;;;;;;6339936;22;19997;-80
2022/10/09 04:38:23;;;;;;;102.90;80.07;;;13.60;99.90;;;;;;6339154;22;20030;-80
2022/10/09 04:41:04;;;;;;;102.20;80.97;;;13.60;99.90;;;;;;6311738;22;20007;-81
2022/10/09 04:43:31;;;;;;;115.72;89.43;;;13.70;99.90;;;;;;6339434;22;19995;-82
2022/10/09 04:45:57;;;;;;;108.30;86.72;;;13.70;99.90;;;;;;6312140;22;19991;-81
2022/10/09 04:48:23;;;;;;;120.00;91.95;;;13.60;99.90;;;;;;6339717;22;20400;-80
2022/10/09 04:50:49;;;;;;;109.05;81.63;;;13.70;99.90;;;;;;6311677;22;20081;-81
2022/10/09 04:53:14;;;;;;;106.70;80.85;;;13.70;99.90;;;;;;6339771;22;20022;-80
2022/10/09 04:55:41;;;;;;;97.78;78.90;;;13.60;99.90;;;;;;6311724;22;20005;-79
2022/10/09 04:58:09;;;;;;;98.90;76.93;;;13.70;99.90;;;;;;6339415;22;19999;-80
2022/10/09 05:00:39;;;;;;;94.22;75.25;;;13.70;99.90;;;;;;6339857;22;19990;-81
2022/10/09 05:03:05;;;;;;;97.00;76.93;;;13.70;99.90;;;;;;6339664;22;19986;-80
2022/10/09 05:05:31;;;;;;;94.85;75.00;;;13.70;99.90;;;;;;6339386;22;20002;-79
2022/10/09 05:07:57;;;;;;;97.55;74.18;;;13.80;99.90;;;;;;6339456;22;19999;-81
2022/10/09 05:10:23;;;;;;;95.68;73.75;;;13.80;99.90;;;;;;6339450;22;19994;-81
2022/10/09 05:12:49;;;;;;;89.45;73.28;;;13.80;99.90;;;;;;6339039;22;20404;-79
2022/10/09 05:15:15;;;;;;;90.30;70.68;;;13.90;99.90;;;;;;6339528;22;19999;-80
2022/10/09 05:17:41;;;;;;;85.38;68.88;;;13.90;99.90;;;;;;6339578;22;20034;-79
2022/10/09 05:20:07;;;;;;;90.00;67.65;;;13.90;99.90;;;;;;6339042;22;20311;-79
2022/10/09 05:22:32;;;;;;;80.68;64.18;;;14.00;99.90;;;;;;6339676;22;20399;-79
2022/10/09 05:24:58;;;;;;;88.07;68.60;;;14.00;99.90;;;;;;6339278;22;19990;-79
2022/10/09 05:27:24;;;;;;;79.18;62.65;;;14.00;99.90;;;;;;6339205;22;20002;-79
2022/10/09 05:29:50;;;;;;;76.53;60.83;;;14.10;99.90;;;;;;6339385;22;20049;-80
2022/10/09 05:32:15;;;;;;;73.75;58.58;;;14.10;99.90;;;;;;6311313;22;20086;-81
2022/10/09 05:34:41;;;;;;;80.70;59.75;;;14.20;99.90;;;;;;6311803;22;20361;-78
2022/10/09 05:37:07;;;;;;;74.30;60.35;;;14.20;99.90;;;;;;6339102;22;20111;-81
2022/10/09 05:39:34;;;;;;;82.50;63.35;;;14.20;99.90;;;;;;6338754;22;19991;-82
2022/10/09 05:42:01;;;;;;;72.53;57.25;;;14.30;99.90;;;;;;6338827;22;20010;-83
2022/10/09 05:44:26;;;;;;;68.55;54.33;;;14.30;99.90;;;;;;6338893;22;19998;-82
2022/10/09 05:46:52;;;;;;;70.70;53.08;;;14.40;99.90;;;;;;6339089;22;19995;-79
2022/10/09 05:49:18;;;;;;;69.85;54.90;;;14.40;99.90;;;;;;6311804;22;20405;-81
2022/10/09 05:51:44;;;;;;;69.10;53.08;;;14.40;99.90;;;;;;6338869;22;19987;-79
2022/10/09 05:54:15;;;;;;;69.68;53.67;;;14.40;99.90;;;;;;6311522;22;20404;-80
2022/10/09 05:56:41;;;;;;;66.97;52.00;;;14.50;99.90;;;;;;6339747;22;20022;-79
2022/10/09 05:59:18;;;;;;;68.45;51.50;;;14.50;99.90;;;;;;6339512;22;20262;-81
2022/10/09 06:01:47;;;;;;;64.13;51.28;;;14.50;99.90;;;;;;6311763;22;19999;-81
2022/10/09 06:04:16;;;;;;;67.47;50.05;;;14.50;99.90;;;;;;6339576;22;20300;-81
2022/10/09 06:06:43;;;;;;;80.57;53.20;;;14.50;99.90;;;;;;6339755;22;19991;-79
2022/10/09 06:09:10;;;;;;;75.38;52.65;;;14.50;99.90;;;;;;6311653;22;19998;-82
2022/10/09 06:11:38;;;;;;;61.63;51.33;;;14.60;99.90;;;;;;6339246;22;20022;-82
2022/10/09 06:14:06;;;;;;;65.53;50.63;;;14.50;99.90;;;;;;6339582;22;20022;-81
2022/10/09 06:16:34;;;;;;;64.82;50.90;;;14.60;99.90;;;;;;6311562;22;20010;-83
2022/10/09 06:19:01;;;;;;;69.15;50.60;;;14.60;99.90;;;;;;6339388;22;20005;-81
2022/10/09 06:21:27;;;;;;;66.60;52.00;;;14.60;99.90;;;;;;6339303;22;20066;-79
2022/10/09 06:23:55;;;;;;;70.57;53.53;;;14.70;99.90;;;;;;6338681;22;20423;-81
2022/10/09 06:26:22;;;;;;;65.40;52.53;;;14.80;99.90;;;;;;6338952;22;20491;-80
2022/10/09 06:28:49;;;;;;;60.97;47.97;;;14.90;99.90;;;;;;6310302;22;20426;-78
2022/10/09 06:31:18;;;;;;;61.58;48.83;;;14.90;99.90;;;;;;6339103;22;19991;-79
2022/10/09 06:33:45;;;;;;;60.05;48.25;;;15.10;99.90;;;;;;6338716;22;19991;-79
2022/10/09 06:36:15;;;;;;;60.10;48.03;;;15.20;99.90;;;;;;6311104;22;20408;-80
2022/10/09 06:38:41;;;;;;;52.67;44.15;;;15.30;99.90;;;;;;6311191;22;20003;-79
2022/10/09 06:41:15;;;;;;;53.25;43.75;;;15.40;99.90;;;;;;6339196;22;20078;-79
2022/10/09 06:43:42;;;;;;;51.88;43.63;;;15.50;99.90;;;;;;6338999;22;20057;-78
2022/10/09 06:46:11;;;;;;;53.50;43.63;;;15.60;99.90;;;;;;6338514;22;19994;-79
2022/10/09 06:48:39;;;;;;;56.65;44.75;;;15.60;99.90;;;;;;6338806;22;20002;-79
2022/10/09 06:51:13;;;;;;;52.20;41.83;;;15.60;99.90;;;;;;6311536;22;19991;-79
2022/10/09 06:53:42;;;;;;;52.17;42.00;;;15.50;99.90;;;;;;6339750;22;20091;-80
2022/10/09 06:56:09;;;;;;;52.95;41.33;;;15.60;99.90;;;;;;6340358;22;20392;-80
2022/10/09 06:58:36;;;;;;;53.03;43.00;;;15.60;99.90;;;;;;6312804;22;20011;-79
2022/10/09 07:01:02;;;;;;;54.88;40.70;;;15.60;99.90;;;;;;6340456;22;19991;-80
2022/10/09 07:03:28;;;;;;;57.10;39.97;;;15.60;99.90;;;;;;6340100;22;20070;-81
2022/10/09 07:06:03;;;;;;;51.67;39.17;;;15.40;99.90;;;;;;6340484;22;20022;-81
2022/10/09 07:08:30;;;;;;;56.80;41.60;;;15.40;99.90;;;;;;6340446;22;20471;-81
2022/10/09 07:10:56;;;;;;;54.72;42.28;;;15.40;99.90;;;;;;6338832;22;20051;-80
2022/10/09 07:13:22;;;;;;;59.28;42.08;;;15.40;99.90;;;;;;6338642;22;20041;-81
2022/10/09 07:15:48;;;;;;;58.58;42.55;;;15.40;99.90;;;;;;6312833;22;19994;-83
2022/10/09 07:18:15;;;;;;;56.80;42.53;;;15.40;99.90;;;;;;6339876;22;20403;-82
2022/10/09 07:20:40;;;;;;;60.05;40.95;;;15.40;99.90;;;;;;6340027;22;19987;-79
2022/10/09 07:23:06;;;;;;;59.65;42.88;;;15.40;99.90;;;;;;6339759;22;19998;-81
2022/10/09 07:25:37;;;;;;;55.80;41.33;;;15.40;99.90;;;;;;6339525;22;20056;-82
2022/10/09 07:28:03;;;;;;;55.20;41.38;;;15.40;99.90;;;;;;6340599;22;20006;-80
2022/10/09 07:30:28;;;;;;;58.35;39.90;;;15.50;99.90;;;;;;6340049;22;19990;-82
2022/10/09 07:32:54;;;;;;;47.25;39.67;;;15.50;99.90;;;;;;6339540;22;20001;-81
2022/10/09 07:35:20;;;;;;;52.72;39.63;;;15.60;99.90;;;;;;6312390;22;19990;-80
2022/10/09 07:37:46;;;;;;;47.22;38.90;;;15.70;99.90;;;;;;6313086;22;20038;-82
2022/10/09 07:40:11;;;;;;;48.40;36.88;;;15.80;99.90;;;;;;6339645;22;20003;-83
2022/10/09 07:42:37;;;;;;;48.03;37.30;;;16.00;99.90;;;;;;6339209;22;20269;-82
2022/10/09 07:45:04;;;;;;;44.60;34.30;;;16.10;99.90;;;;;;6311543;22;20002;-81
2022/10/09 07:47:29;;;;;;;48.95;35.53;;;16.20;99.90;;;;;;6338195;22;19991;-84
2022/10/09 07:49:56;;;;;;;46.67;33.95;;;16.30;99.90;;;;;;6340657;22;20002;-83
2022/10/09 07:52:21;;;;;;;46.03;31.83;;;16.40;99.90;;;;;;6312936;22;20057;-82
2022/10/09 07:54:50;;;;;;;38.10;30.02;;;16.40;99.90;;;;;;6312698;22;20331;-85
2022/10/09 07:57:16;;;;;;;43.22;30.60;;;16.50;99.90;;;;;;6340106;22;20070;-83
2022/10/09 07:59:42;;;;;;;47.10;31.33;;;16.50;99.90;;;;;;6339708;22;20010;-81
2022/10/09 08:02:08;;;;;;;37.00;27.60;;;16.70;99.90;;;;;;6340328;22;20044;-84
2022/10/09 08:04:36;;;;;;;35.80;26.90;;;16.80;99.90;;;;;;6312806;22;19991;-85
2022/10/09 08:07:02;;;;;;;36.83;27.50;;;16.90;99.90;;;;;;6312102;22;20044;-86
2022/10/09 08:10:13;;;;;;;34.53;27.35;;;17.00;99.90;;;;;;6340054;22;20005;-83
2022/10/09 08:12:39;;;;;;;41.15;26.45;;;17.10;99.90;;;;;;6183890;23;20038;-82
2022/10/09 08:15:05;;;;;;;38.65;26.55;;;17.20;99.90;;;;;;6183117;23;20037;-83
2022/10/09 08:17:31;;;;;;;38.40;26.38;;;17.30;99.90;;;;;;6183156;23;20009;-83
2022/10/09 08:19:57;;;;;;;44.35;26.92;;;17.30;99.90;;;;;;6183540;23;20039;-83
2022/10/09 08:22:23;;;;;;;46.85;26.83;;;17.40;99.90;;;;;;6183542;23;20001;-83
2022/10/09 08:24:48;;;;;;;35.65;25.83;;;17.50;99.90;;;;;;6183848;23;20144;-83
2022/10/09 08:27:14;;;;;;;37.45;25.65;;;17.50;99.90;;;;;;6183360;23;20078;-83
2022/10/09 08:29:40;;;;;;;35.97;26.98;;;17.40;99.90;;;;;;6183903;23;19997;-84
2022/10/09 08:32:06;;;;;;;33.80;26.75;;;17.30;99.90;;;;;;6159126;23;20028;-82
2022/10/09 08:34:31;;;;;;;37.67;28.52;;;17.20;99.90;;;;;;6183968;23;20001;-82
2022/10/09 08:36:57;;;;;;;42.50;29.85;;;17.20;99.90;;;;;;6182958;23;19997;-83
2022/10/09 08:39:23;;;;;;;44.90;29.75;;;17.40;99.90;;;;;;6182202;23;20346;-84
2022/10/09 08:41:53;;;;;;;42.88;28.65;;;17.50;99.90;;;;;;6183002;23;20016;-83
2022/10/09 08:44:26;;;;;;;34.08;26.05;;;17.60;99.90;;;;;;6183911;23;20030;-83
2022/10/09 08:47:13;;;;;;;31.15;25.38;;;17.70;99.90;;;;;;6184035;23;20093;-81
2022/10/09 08:50:09;;;;;;;33.53;24.73;;;17.80;99.90;;;;;;6288510;22;19991;-83
2022/10/09 08:52:40;;;;;;;36.67;25.52;;;17.90;99.90;;;;;;6306672;22;20067;-82
2022/10/09 08:55:31;;;;;;;34.95;24.88;;;17.90;99.90;;;;;;6313135;22;19995;-83
2022/10/09 08:58:03;;;;;;;37.67;27.75;;;18.10;99.90;;;;;;6340142;22;20003;-82
2022/10/09 09:01:13;;;;;;;39.45;25.05;;;18.20;99.90;;;;;;6312415;22;20412;-82
2022/10/09 09:04:00;;;;;;;31.65;23.23;;;18.30;99.90;;;;;;6183605;23;20051;-83
2022/10/09 09:06:34;;;;;;;32.58;23.67;;;18.30;99.90;;;;;;6183848;23;19993;-82
2022/10/09 09:09:42;;;;;;;28.65;22.83;;;18.30;99.90;;;;;;6184039;23;20028;-81
2022/10/09 09:12:46;;;;;;;34.97;25.20;;;18.40;99.90;;;;;;6071109;23;20002;-82
2022/10/09 09:15:36;;;;;;;32.90;22.50;;;18.50;99.90;;;;;;6070971;23;20005;-82
2022/10/09 09:18:05;;;;;;;36.10;23.55;;;18.70;99.90;;;;;;6095050;23;20014;-83
2022/10/09 09:20:49;;;;;;;32.38;23.80;;;18.70;99.90;;;;;;6095337;23;20308;-82
2022/10/09 09:23:16;;;;;;;32.35;22.63;;;18.70;99.90;;;;;;6070838;23;20002;-83
2022/10/09 09:25:44;;;;;;;33.13;22.63;;;18.90;99.90;;;;;;6071126;23;20010;-83
2022/10/09 09:28:21;;;;;;;28.00;21.90;;;18.90;99.90;;;;;;6095233;23;20007;-82
2022/10/09 09:30:54;;;;;;;30.35;22.10;;;19.00;99.90;;;;;;6070920;23;20046;-82
2022/10/09 09:33:41;;;;;;;32.33;23.02;;;19.00;99.90;;;;;;6071176;23;19999;-81
2022/10/09 09:36:27;;;;;;;35.53;21.80;;;19.10;99.90;;;;;;6095257;23;20014;-82
2022/10/09 09:38:53;;;;;;;29.63;20.70;;;19.30;99.90;;;;;;6105758;23;20048;-81
2022/10/09 09:41:19;;;;;;;27.85;20.15;;;19.40;99.90;;;;;;6183450;23;20040;-80
2022/10/09 09:43:44;;;;;;;28.20;21.50;;;19.50;99.90;;;;;;6183518;23;20048;-82
2022/10/09 09:46:17;;;;;;;36.20;22.05;;;19.40;99.90;;;;;;6183366;23;20001;-82
2022/10/09 09:48:47;;;;;;;30.55;21.40;;;19.30;99.90;;;;;;6210199;22;19998;-82
2022/10/09 09:51:21;;;;;;;28.00;20.58;;;19.10;99.90;;;;;;6312036;22;20280;-83
2022/10/09 09:53:50;;;;;;;29.83;21.33;;;19.10;99.90;;;;;;6339438;22;19995;-81
2022/10/09 09:56:16;;;;;;;30.45;21.40;;;19.10;99.90;;;;;;6311906;22;19994;-82
2022/10/09 09:58:52;;;;;;;36.10;23.08;;;19.10;99.90;;;;;;6339352;22;20273;-82
2022/10/09 10:01:30;;;;;;;32.08;21.73;;;19.00;99.90;;;;;;6311935;22;20006;-81
2022/10/09 10:03:58;;;;;;;40.03;24.65;;;18.90;99.90;;;;;;6311904;22;20357;-82
2022/10/09 10:06:48;;;;;;;27.30;19.02;;;19.00;99.90;;;;;;6339355;22;20018;-82
2022/10/09 10:09:16;;;;;;;30.88;20.30;;;19.10;99.90;;;;;;6337994;22;20002;-82
2022/10/09 10:11:51;;;;;;;25.88;19.73;;;19.00;99.90;;;;;;6311899;22;20006;-83
2022/10/09 10:14:17;;;;;;;29.23;18.95;;;19.10;99.90;;;;;;6339070;22;19995;-81
2022/10/09 10:16:47;;;;;;;32.33;18.85;;;19.10;99.90;;;;;;6339598;22;20300;-82
2022/10/09 10:19:26;;;;;;;22.58;17.25;;;19.20;99.90;;;;;;6339283;22;20177;-82
2022/10/09 10:22:19;;;;;;;27.45;19.08;;;19.20;99.90;;;;;;6339349;22;19995;-81
2022/10/09 10:24:48;;;;;;;27.25;19.38;;;19.30;99.90;;;;;;6311943;22;20300;-82
2022/10/09 10:27:32;;;;;;;34.08;19.58;;;19.50;99.90;;;;;;6341084;22;19990;-83
2022/10/09 10:30:02;;;;;;;29.17;17.95;;;19.70;99.90;;;;;;6313987;22;20433;-83
2022/10/09 10:32:38;;;;;;;27.38;18.05;;;19.80;99.90;;;;;;6341148;22;19991;-80
2022/10/09 10:35:13;;;;;;;29.67;19.25;;;19.90;99.90;;;;;;6313764;22;20285;-82
2022/10/09 10:37:44;;;;;;;29.25;18.60;;;20.20;99.90;;;;;;6341307;22;20003;-81
2022/10/09 10:40:25;;;;;;;34.25;16.85;;;20.60;99.90;;;;;;6313764;22;20003;-81
2022/10/09 10:43:00;;;;;;;28.67;15.75;;;21.10;99.90;;;;;;6341189;22;19999;-82
2022/10/09 10:45:33;;;;;;;23.60;15.77;;;21.50;99.90;;;;;;6341334;22;19998;-81
2022/10/09 10:48:01;;;;;;;24.10;16.75;;;21.80;99.90;;;;;;6313585;22;19999;-80
2022/10/09 10:50:35;;;;;;;28.63;14.45;;;;;;;;;;6314035;22;20303;-81
2022/10/09 10:53:03;;;;;;;29.08;14.02;;;;;;;;;;6313716;22;20043;-83
2022/10/09 10:55:39;;;;;;;21.13;14.25;;;;;;;;;;6341283;22;19995;-80
2022/10/09 10:58:20;;;;;;;21.25;14.10;;;;;;;;;;6341280;22;20082;-81
2022/10/09 11:01:06;;;;;;;21.30;13.55;;;;;;;;;;6341227;22;20375;-81
2022/10/09 11:03:39;;;;;;;19.35;13.73;;;;;;;;;;6314371;22;20082;-81
2022/10/09 11:06:11;;;;;;;22.55;14.00;;;;;;;;;;6313558;22;20369;-82
2022/10/09 11:08:56;;;;;;;18.30;12.57;;;;;;;;;;6313420;22;20003;-81
2022/10/09 11:11:38;;;;;;;19.42;13.25;;;;;;;;;;6313343;22;20010;-82
2022/10/09 11:14:07;;;;;;;18.20;13.60;;;;;;;;;;6340665;22;19990;-81
2022/10/09 11:16:33;;;;;;;18.45;14.38;;;;;;;;;;6313298;22;19995;-81
2022/10/09 11:18:59;;;;;;;23.27;14.43;;;;;;;;;;6340654;22;20289;-81
2022/10/09 11:21:48;;;;;;;24.40;14.80;;;;;;;;;;6313458;22;20090;-81
2022/10/09 11:24:25;;;;;;;36.78;19.10;;;;;;;;;;6312627;22;20008;-81
2022/10/09 11:27:06;;;;;;;26.23;15.73;;;;;;;;;;6340992;22;20044;-81
2022/10/09 11:29:41;;;;;;;22.40;15.00;;;;;;;;;;6340556;22;20386;-81
2022/10/09 11:32:26;;;;;;;21.27;13.57;;;;;;;;;;6313341;22;20022;-80
2022/10/09 11:35:01;;;;;;;25.20;13.85;;;;;;;;;;6313171;22;20002;-81
2022/10/09 11:37:33;;;;;;;22.20;14.68;;;;;;;;;;6340179;22;19991;-81
2022/10/09 11:40:00;;;;;;;16.90;13.02;;;;;;;;;;6313140;22;20081;-82
2022/10/09 11:42:27;;;;;;;16.73;12.77;;;;;;;;;;6313127;22;19990;-81
2022/10/09 11:45:04;;;;;;;16.05;12.75;;;;;;;;;;6312995;22;20082;-80
2022/10/09 11:47:33;;;;;;;20.08;13.13;;;;;;;;;;6340735;22;19991;-82
2022/10/09 11:50:20;;;;;;;25.08;13.57;;;;;;;;;;6313195;22;20018;-80
2022/10/09 11:52:46;;;;;;;19.33;12.57;;;;;;;;;;6291591;22;20308;-81
2022/10/09 11:55:22;;;;;;;18.08;11.85;;;;;;;;;;6340612;22;20447;-81
2022/10/09 11:57:48;;;;;;;22.17;12.18;;;22.70;92.60;;;;;;6340051;22;20419;-83
2022/10/09 12:00:15;;;;;;;21.83;11.32;;;22.60;94.20;;;;;;6313325;22;20002;-81
2022/10/09 12:02:42;;;;;;;23.92;12.13;;;22.70;94.80;;;;;;6340150;22;20315;-81
2022/10/09 12:05:39;;;;;;;21.52;13.63;;;22.50;95.20;;;;;;6340388;22;19994;-81
2022/10/09 12:08:26;;;;;;;18.58;12.18;;;22.20;96.00;;;;;;6340423;22;19995;-81
2022/10/09 12:11:05;;;;;;;27.25;17.20;;;22.00;96.90;;;;;;6340721;22;19995;-80
2022/10/09 12:13:40;;;;;;;22.05;13.70;;;21.80;99.60;;;;;;6312929;22;20277;-83
2022/10/09 12:16:09;;;;;;;21.10;13.85;;;21.60;99.90;;;;;;6340443;22;19995;-80
2022/10/09 12:18:44;;;;;;;14.27;12.63;;;21.40;99.90;;;;;;6339937;22;20065;-80
2022/10/09 12:21:27;;;;;;;21.77;13.30;;;21.20;99.90;;;;;;6340558;22;19996;-80
2022/10/09 12:23:54;;;;;;;22.40;13.95;;;21.10;99.90;;;;;;6340518;22;20418;-80
2022/10/09 12:26:23;;;;;;;18.42;13.05;;;21.00;99.90;;;;;;6340243;22;19995;-81
2022/10/09 12:28:53;;;;;;;21.73;14.85;;;20.90;99.90;;;;;;6340403;22;20308;-83
2022/10/09 12:31:32;;;;;;;29.25;14.15;;;21.00;99.90;;;;;;6339658;22;20350;-82
2022/10/09 12:34:24;;;;;;;18.08;12.40;;;21.00;99.90;;;;;;6340198;22;20408;-81
2022/10/09 12:36:50;;;;;;;20.85;11.90;;;21.00;99.90;;;;;;6340422;22;19999;-80
2022/10/09 12:39:22;;;;;;;17.23;11.70;;;21.00;99.90;;;;;;6312422;22;20006;-81
2022/10/09 12:41:56;;;;;;;19.95;11.98;;;21.00;99.90;;;;;;6312626;22;20006;-82
2022/10/09 12:44:30;;;;;;;20.05;12.30;;;21.00;99.90;;;;;;6312660;22;20523;-82
2022/10/09 12:47:06;;;;;;;22.05;12.77;;;21.00;99.90;;;;;;6339768;22;20412;-83
2022/10/09 12:49:32;;;;;;;19.00;12.43;;;21.00;99.90;;;;;;6339936;22;20415;-81